PWSweather.com
Personal Weather Stations
Station Observations
CARNOUSTIE
Pambride, CarnoustieGB DD7 6DY

PambrideCarnoustieGB DD7 6DY

Lat: 56.50889, Lon: -2.7051

Elevation: 105

Station Type: Oregon Scientific WMR200

www.carnoustieweather.co.uk

High Low Average
Temperature 68.0°F20.0°C 50.2°F10.1°C 60.1°F15.6°C
Dew Point 57.6°F14.2°C 42.2°F5.7°C 50.2°F10.1°C
Winds 31.1 mph 50.1 kmh 4.6 mph 7.4 kmh 14.0 mph WSW22.5 kmh WSW
Wind Gusts 36.8 mph59.2 kmh 5.8 mph9.3 kmh 19.0 mph30.6 kmh
Humidity 98% 47% 72%
Pressure 29.74 in1007.1 mb 29.12 in986.1 mb -
Precipitation 0.02 in0.5 mm - -
Hour Temp Dew Point Humidity Winds Wind Gusts Pressure Precip Precip Rate Daily Precip Total
12:00 AM 56.1°F13.4°C 55.6°F13.1°C 98% 5.8 mph S9.3 kmh S 8.1 mph13.0 kmh 29.44 in997.0 mb - 0.02 in0.5 mm 0.02 in0.5 mm
12:10 AM 56.2°F13.4°C 55.6°F13.1°C 98% 5.8 mph S9.3 kmh S 5.8 mph9.3 kmh 29.41 in995.9 mb - 0.02 in0.5 mm 0.02 in0.5 mm
12:20 AM 56.5°F13.6°C 55.9°F13.3°C 98% 6.9 mph SW11.1 kmh SW 9.2 mph14.8 kmh 29.39 in995.3 mb - 0.00 in0.0 mm 0.02 in0.5 mm
12:30 AM 56.7°F13.7°C 56.1°F13.4°C 98% 5.8 mph SW9.3 kmh SW 8.1 mph13.0 kmh 29.38 in994.9 mb - 0.00 in0.0 mm 0.02 in0.5 mm
12:40 AM 56.8°F13.8°C 56.3°F13.5°C 98% 4.6 mph SW7.4 kmh SW 6.9 mph11.1 kmh 29.38 in994.9 mb - 0.00 in0.0 mm 0.02 in0.5 mm
12:50 AM 57.0°F13.9°C 56.5°F13.6°C 98% 5.8 mph SW9.3 kmh SW 8.1 mph13.0 kmh 29.38 in994.9 mb - 0.00 in0.0 mm 0.02 in0.5 mm
01:00 AM 57.2°F14.0°C 56.6°F13.7°C 98% 6.9 mph SW11.1 kmh SW 11.5 mph18.5 kmh 29.38 in994.9 mb - 0.00 in0.0 mm 0.02 in0.5 mm
01:10 AM 57.4°F14.1°C 56.8°F13.8°C 98% 4.6 mph SW7.4 kmh SW 6.9 mph11.1 kmh 29.38 in994.9 mb - 0.00 in0.0 mm 0.02 in0.5 mm
01:20 AM 57.6°F14.2°C 57.0°F13.9°C 98% 5.8 mph WSW9.3 kmh WSW 8.1 mph13.0 kmh 29.38 in994.9 mb - 0.00 in0.0 mm 0.02 in0.5 mm
01:30 AM 57.6°F14.2°C 56.7°F13.7°C 97% 5.8 mph WSW9.3 kmh WSW 8.1 mph13.0 kmh 29.38 in994.9 mb - 0.00 in0.0 mm 0.02 in0.5 mm
01:40 AM 57.6°F14.2°C 56.7°F13.7°C 97% 8.1 mph WSW13.0 kmh WSW 9.2 mph14.8 kmh 29.35 in993.9 mb - 0.00 in0.0 mm 0.02 in0.5 mm
01:50 AM 57.7°F14.3°C 56.6°F13.7°C 96% 4.6 mph W7.4 kmh W 5.8 mph9.3 kmh 29.33 in993.2 mb - 0.00 in0.0 mm 0.02 in0.5 mm
02:00 AM 57.7°F14.3°C 56.6°F13.7°C 96% 5.8 mph WSW9.3 kmh WSW 5.8 mph9.3 kmh 29.32 in992.9 mb - 0.00 in0.0 mm 0.02 in0.5 mm
02:10 AM 57.7°F14.3°C 56.6°F13.7°C 96% 6.9 mph WSW11.1 kmh WSW 8.1 mph13.0 kmh 29.32 in992.9 mb - 0.00 in0.0 mm 0.02 in0.5 mm
02:20 AM 57.6°F14.2°C 56.4°F13.6°C 96% 5.8 mph SW9.3 kmh SW 9.2 mph14.8 kmh 29.32 in992.9 mb - 0.00 in0.0 mm 0.02 in0.5 mm
02:30 AM 57.6°F14.2°C 56.4°F13.6°C 96% 8.1 mph SSW13.0 kmh SSW 13.8 mph22.2 kmh 29.32 in992.9 mb - 0.00 in0.0 mm 0.02 in0.5 mm
02:40 AM 57.6°F14.2°C 56.7°F13.7°C 97% 5.8 mph SW9.3 kmh SW 8.1 mph13.0 kmh 29.29 in991.9 mb - 0.00 in0.0 mm 0.02 in0.5 mm
02:50 AM 57.6°F14.2°C 56.7°F13.7°C 97% 8.1 mph SW13.0 kmh SW 10.4 mph16.7 kmh 29.27 in991.2 mb - 0.00 in0.0 mm 0.02 in0.5 mm
03:00 AM 57.7°F14.3°C 56.9°F13.8°C 97% 5.8 mph WNW9.3 kmh WNW 10.4 mph16.7 kmh 29.26 in990.9 mb - 0.00 in0.0 mm 0.02 in0.5 mm
03:10 AM 57.9°F14.4°C 57.0°F13.9°C 97% 8.1 mph SW13.0 kmh SW 13.8 mph22.2 kmh 29.23 in989.8 mb - 0.00 in0.0 mm 0.02 in0.5 mm
03:20 AM 58.3°F14.6°C 57.1°F13.9°C 96% 13.8 mph SW22.2 kmh SW 19.6 mph31.5 kmh 29.26 in990.9 mb - 0.00 in0.0 mm 0.02 in0.5 mm
03:30 AM 58.5°F14.7°C 57.0°F13.9°C 95% 10.4 mph SW16.7 kmh SW 19.6 mph31.5 kmh 29.26 in990.9 mb - 0.00 in0.0 mm 0.02 in0.5 mm
03:40 AM 58.5°F14.7°C 56.7°F13.7°C 94% 10.4 mph SSW16.7 kmh SSW 13.8 mph22.2 kmh 29.26 in990.9 mb - 0.00 in0.0 mm 0.02 in0.5 mm
03:50 AM 58.5°F14.7°C 56.7°F13.7°C 94% 11.5 mph S18.5 kmh S 16.1 mph25.9 kmh 29.24 in990.2 mb - 0.00 in0.0 mm 0.02 in0.5 mm
04:00 AM 58.6°F14.8°C 56.9°F13.8°C 94% 9.2 mph S14.8 kmh S 12.7 mph20.4 kmh 29.23 in989.8 mb - 0.00 in0.0 mm 0.02 in0.5 mm
04:10 AM 58.8°F14.9°C 56.8°F13.8°C 93% 10.4 mph SSW16.7 kmh SSW 12.7 mph20.4 kmh 29.23 in989.8 mb - 0.00 in0.0 mm 0.02 in0.5 mm
04:20 AM 59.0°F15.0°C 56.7°F13.7°C 92% 10.4 mph SSW16.7 kmh SSW 13.8 mph22.2 kmh 29.21 in989.2 mb - 0.00 in0.0 mm 0.02 in0.5 mm
04:30 AM 59.2°F15.1°C 56.9°F13.8°C 92% 9.2 mph S14.8 kmh S 10.4 mph16.7 kmh 29.20 in988.8 mb - 0.00 in0.0 mm 0.02 in0.5 mm
04:40 AM 59.2°F15.1°C 56.9°F13.8°C 92% 6.9 mph SW11.1 kmh SW 9.2 mph14.8 kmh 29.18 in988.1 mb - 0.00 in0.0 mm 0.02 in0.5 mm
04:50 AM 59.4°F15.2°C 57.0°F13.9°C 92% 10.4 mph SW16.7 kmh SW 13.8 mph22.2 kmh 29.20 in988.8 mb - 0.00 in0.0 mm 0.02 in0.5 mm
05:00 AM 59.6°F15.3°C 57.3°F14.1°C 92% 8.1 mph S13.0 kmh S 10.4 mph16.7 kmh 29.20 in988.8 mb - 0.00 in0.0 mm 0.02 in0.5 mm
05:10 AM 59.9°F15.5°C 57.6°F14.2°C 92% 11.5 mph S18.5 kmh S 16.1 mph25.9 kmh 29.20 in988.8 mb - 0.00 in0.0 mm 0.02 in0.5 mm
05:20 AM 60.1°F15.6°C 57.4°F14.1°C 91% 6.9 mph WSW11.1 kmh WSW 9.2 mph14.8 kmh 29.18 in988.1 mb - 0.00 in0.0 mm 0.02 in0.5 mm
05:30 AM 60.2°F15.7°C 57.5°F14.2°C 91% 11.5 mph SSE18.5 kmh SSE 16.1 mph25.9 kmh 29.18 in988.1 mb - 0.00 in0.0 mm 0.02 in0.5 mm
05:40 AM 60.3°F15.7°C 56.7°F13.7°C 88% 11.5 mph S18.5 kmh S 13.8 mph22.2 kmh 29.15 in987.1 mb - 0.00 in0.0 mm 0.02 in0.5 mm
05:50 AM 60.3°F15.7°C 56.7°F13.7°C 88% 11.5 mph SSW18.5 kmh SSW 17.3 mph27.8 kmh 29.15 in987.1 mb - 0.00 in0.0 mm 0.02 in0.5 mm
06:00 AM 60.6°F15.9°C 56.7°F13.7°C 87% 11.5 mph SSW18.5 kmh SSW 15.0 mph24.1 kmh 29.15 in987.1 mb - 0.00 in0.0 mm 0.02 in0.5 mm
06:10 AM 60.8°F16.0°C 56.6°F13.7°C 86% 10.4 mph SSE16.7 kmh SSE 13.8 mph22.2 kmh 29.15 in987.1 mb - 0.00 in0.0 mm 0.02 in0.5 mm
06:20 AM 60.8°F16.0°C 56.9°F13.8°C 87% 9.2 mph SW14.8 kmh SW 11.5 mph18.5 kmh 29.15 in987.1 mb - 0.00 in0.0 mm 0.02 in0.5 mm
06:30 AM 61.2°F16.2°C 56.6°F13.7°C 85% 10.4 mph SSW16.7 kmh SSW 16.1 mph25.9 kmh 29.15 in987.1 mb - 0.00 in0.0 mm 0.02 in0.5 mm
06:40 AM 62.1°F16.7°C 55.8°F13.2°C 80% 11.5 mph SW18.5 kmh SW 11.5 mph18.5 kmh 29.15 in987.1 mb - 0.00 in0.0 mm 0.02 in0.5 mm
06:50 AM 62.4°F16.9°C 55.1°F12.8°C 77% 13.8 mph WSW22.2 kmh WSW 17.3 mph27.8 kmh 29.15 in987.1 mb - 0.00 in0.0 mm 0.02 in0.5 mm
07:00 AM 62.4°F16.9°C 55.1°F12.8°C 77% 9.2 mph SW14.8 kmh SW 13.8 mph22.2 kmh 29.15 in987.1 mb - 0.00 in0.0 mm 0.02 in0.5 mm
07:10 AM 61.3°F16.3°C 55.5°F13.1°C 81% 13.8 mph WSW22.2 kmh WSW 18.4 mph29.6 kmh 29.15 in987.1 mb - 0.00 in0.0 mm 0.02 in0.5 mm
07:20 AM 60.6°F15.9°C 54.4°F12.4°C 80% 13.8 mph W22.2 kmh W 18.4 mph29.6 kmh 29.12 in986.1 mb - 0.00 in0.0 mm 0.02 in0.5 mm
07:30 AM 60.4°F15.8°C 54.6°F12.6°C 81% 16.1 mph WSW25.9 kmh WSW 23.0 mph37.0 kmh 29.12 in986.1 mb - 0.00 in0.0 mm 0.02 in0.5 mm
07:40 AM 60.6°F15.9°C 54.4°F12.4°C 80% 8.1 mph WSW13.0 kmh WSW 12.7 mph20.4 kmh 29.15 in987.1 mb - 0.00 in0.0 mm 0.02 in0.5 mm
07:50 AM 60.4°F15.8°C 53.5°F11.9°C 78% 12.7 mph SW20.4 kmh SW 15.0 mph24.1 kmh 29.15 in987.1 mb - 0.00 in0.0 mm 0.02 in0.5 mm
08:00 AM 61.0°F16.1°C 53.4°F11.9°C 76% 15.0 mph WSW24.1 kmh WSW 18.4 mph29.6 kmh 29.15 in987.1 mb - 0.00 in0.0 mm 0.02 in0.5 mm
08:10 AM 61.2°F16.2°C 53.2°F11.8°C 75% 13.8 mph WSW22.2 kmh WSW 24.2 mph38.9 kmh 29.15 in987.1 mb - 0.00 in0.0 mm 0.02 in0.5 mm
08:20 AM 60.8°F16.0°C 53.2°F11.8°C 76% 16.1 mph WSW25.9 kmh WSW 20.7 mph33.3 kmh 29.12 in986.1 mb - 0.00 in0.0 mm 0.02 in0.5 mm
08:40 AM 61.1°F16.2°C 54.1°F12.3°C 78% 12.7 mph SW20.4 kmh SW 17.3 mph27.8 kmh 29.12 in986.1 mb - 0.00 in0.0 mm 0.02 in0.5 mm
08:50 AM 61.8°F16.6°C 54.6°F12.6°C 77% 13.8 mph SSW22.2 kmh SSW 20.7 mph33.3 kmh 29.12 in986.1 mb - 0.00 in0.0 mm 0.02 in0.5 mm
09:00 AM 63.0°F17.2°C 54.9°F12.7°C 75% 9.2 mph SSW14.8 kmh SSW 13.8 mph22.2 kmh 29.12 in986.1 mb - 0.00 in0.0 mm 0.02 in0.5 mm
09:10 AM 63.1°F17.3°C 54.6°F12.6°C 74% 13.8 mph WSW22.2 kmh WSW 24.2 mph38.9 kmh 29.12 in986.1 mb - 0.00 in0.0 mm 0.02 in0.5 mm
09:20 AM 61.7°F16.5°C 53.7°F12.1°C 75% 21.9 mph WSW35.2 kmh WSW 31.1 mph50.1 kmh 29.12 in986.1 mb - 0.00 in0.0 mm 0.02 in0.5 mm
09:30 AM 61.9°F16.6°C 53.9°F12.2°C 75% 16.1 mph WSW25.9 kmh WSW 23.0 mph37.0 kmh 29.12 in986.1 mb - 0.00 in0.0 mm 0.02 in0.5 mm
09:40 AM 62.2°F16.8°C 53.1°F11.7°C 72% 31.1 mph NW50.1 kmh NW 34.5 mph55.5 kmh 29.15 in987.1 mb - 0.00 in0.0 mm 0.02 in0.5 mm
09:50 AM 64.0°F17.8°C 53.7°F12.1°C 69% 26.5 mph WSW42.6 kmh WSW 33.4 mph53.8 kmh 29.15 in987.1 mb - 0.00 in0.0 mm 0.02 in0.5 mm
10:00 AM 64.6°F18.1°C 53.4°F11.9°C 67% 24.2 mph WSW38.9 kmh WSW 25.3 mph40.7 kmh 29.15 in987.1 mb - 0.00 in0.0 mm 0.02 in0.5 mm
10:10 AM 63.3°F17.4°C 53.0°F11.7°C 69% 18.4 mph WSW29.6 kmh WSW 24.2 mph38.9 kmh 29.20 in988.8 mb - 0.00 in0.0 mm 0.02 in0.5 mm
10:20 AM 64.4°F18.0°C 53.2°F11.8°C 67% 23.0 mph W37.0 kmh W 27.6 mph44.4 kmh 29.20 in988.8 mb - 0.00 in0.0 mm 0.02 in0.5 mm
10:30 AM 67.1°F19.5°C 54.1°F12.3°C 63% 25.3 mph WSW40.7 kmh WSW 31.1 mph50.1 kmh 29.20 in988.8 mb - 0.00 in0.0 mm 0.02 in0.5 mm
10:40 AM 67.8°F19.9°C 54.8°F12.7°C 63% 19.6 mph WSW31.5 kmh WSW 32.2 mph51.8 kmh 29.23 in989.8 mb - 0.00 in0.0 mm 0.02 in0.5 mm
10:50 AM 68.0°F20.0°C 54.5°F12.5°C 62% 15.0 mph W24.1 kmh W 20.7 mph33.3 kmh 29.26 in990.9 mb - 0.00 in0.0 mm 0.02 in0.5 mm
11:00 AM 67.3°F19.6°C 50.6°F10.3°C 55% 27.6 mph W44.4 kmh W 36.8 mph59.2 kmh 29.26 in990.9 mb - 0.00 in0.0 mm 0.02 in0.5 mm
11:10 AM 65.2°F18.4°C 49.6°F9.8°C 57% 18.4 mph W29.6 kmh W 20.7 mph33.3 kmh 29.26 in990.9 mb - 0.00 in0.0 mm 0.02 in0.5 mm
11:20 AM 64.5°F18.1°C 50.3°F10.2°C 60% 16.1 mph WSW25.9 kmh WSW 19.6 mph31.5 kmh 29.31 in992.6 mb - 0.00 in0.0 mm 0.02 in0.5 mm
11:30 AM 63.9°F17.7°C 50.1°F10.1°C 61% 19.6 mph WSW31.5 kmh WSW 26.5 mph42.6 kmh 29.32 in992.9 mb - 0.00 in0.0 mm 0.02 in0.5 mm
11:40 AM 64.3°F17.9°C 49.2°F9.6°C 58% 20.7 mph W33.3 kmh W 23.0 mph37.0 kmh 29.32 in992.9 mb - 0.00 in0.0 mm 0.02 in0.5 mm
11:50 AM 65.8°F18.8°C 49.7°F9.8°C 56% 23.0 mph W37.0 kmh W 28.8 mph46.3 kmh 29.37 in994.6 mb - 0.00 in0.0 mm 0.02 in0.5 mm
12:00 PM 66.4°F19.1°C 49.2°F9.6°C 54% 23.0 mph WSW37.0 kmh WSW 28.8 mph46.3 kmh 29.38 in994.9 mb - 0.00 in0.0 mm 0.02 in0.5 mm
12:10 PM 67.2°F19.6°C 49.5°F9.7°C 53% 20.7 mph W33.3 kmh W 24.2 mph38.9 kmh 29.38 in994.9 mb - 0.00 in0.0 mm 0.02 in0.5 mm
12:20 PM 66.7°F19.3°C 48.5°F9.2°C 52% 19.6 mph WSW31.5 kmh WSW 25.3 mph40.7 kmh 29.38 in994.9 mb - 0.00 in0.0 mm 0.02 in0.5 mm
12:30 PM 66.4°F19.1°C 47.7°F8.7°C 51% 26.5 mph WSW42.6 kmh WSW 32.2 mph51.8 kmh 29.38 in994.9 mb - 0.00 in0.0 mm 0.02 in0.5 mm
12:40 PM 66.7°F19.3°C 48.0°F8.9°C 51% 21.9 mph W35.2 kmh W 28.8 mph46.3 kmh 29.41 in995.9 mb - 0.00 in0.0 mm 0.02 in0.5 mm
12:50 PM 66.1°F18.9°C 48.5°F9.2°C 53% 18.4 mph W29.6 kmh W 23.0 mph37.0 kmh 29.44 in997.0 mb - 0.00 in0.0 mm 0.02 in0.5 mm
01:00 PM 65.4°F18.6°C 46.3°F7.9°C 50% 21.9 mph W35.2 kmh W 33.4 mph53.8 kmh 29.44 in997.0 mb - 0.00 in0.0 mm 0.02 in0.5 mm
01:10 PM 65.0°F18.3°C 44.8°F7.1°C 48% 28.8 mph WSW46.3 kmh WSW 35.7 mph57.5 kmh 29.44 in997.0 mb - 0.00 in0.0 mm 0.02 in0.5 mm
01:20 PM 65.0°F18.3°C 44.9°F7.2°C 48% 24.2 mph W38.9 kmh W 28.8 mph46.3 kmh 29.46 in997.6 mb - 0.00 in0.0 mm 0.02 in0.5 mm
01:30 PM 65.1°F18.4°C 45.5°F7.5°C 49% 21.9 mph W35.2 kmh W 29.9 mph48.1 kmh 29.47 in998.0 mb - 0.00 in0.0 mm 0.02 in0.5 mm
01:40 PM 64.7°F18.2°C 44.6°F7.0°C 48% 24.2 mph W38.9 kmh W 32.2 mph51.8 kmh 29.47 in998.0 mb - 0.00 in0.0 mm 0.02 in0.5 mm
01:50 PM 64.2°F17.9°C 45.2°F7.3°C 50% 19.6 mph WSW31.5 kmh WSW 23.0 mph37.0 kmh 29.49 in998.6 mb - 0.00 in0.0 mm 0.02 in0.5 mm
02:00 PM 64.7°F18.2°C 46.2°F7.9°C 51% 20.7 mph W33.3 kmh W 27.6 mph44.4 kmh 29.50 in999.0 mb - 0.00 in0.0 mm 0.02 in0.5 mm
02:10 PM 65.1°F18.4°C 45.5°F7.5°C 49% 19.6 mph W31.5 kmh W 18.4 mph29.6 kmh 29.47 in998.0 mb - 0.00 in0.0 mm 0.02 in0.5 mm
02:20 PM 65.0°F18.3°C 45.3°F7.4°C 49% 19.6 mph W31.5 kmh W 25.3 mph40.7 kmh 29.50 in999.0 mb - 0.00 in0.0 mm 0.02 in0.5 mm
02:30 PM 63.2°F17.3°C 46.3°F7.9°C 54% 21.9 mph WSW35.2 kmh WSW 27.6 mph44.4 kmh 29.50 in999.0 mb - 0.00 in0.0 mm 0.02 in0.5 mm
02:40 PM 62.2°F16.8°C 46.3°F7.9°C 56% 18.4 mph W29.6 kmh W 20.7 mph33.3 kmh 29.50 in999.0 mb - 0.00 in0.0 mm 0.02 in0.5 mm
02:50 PM 62.2°F16.8°C 46.8°F8.2°C 57% 17.3 mph WSW27.8 kmh WSW 27.6 mph44.4 kmh 29.52 in999.7 mb - 0.00 in0.0 mm 0.02 in0.5 mm
03:00 PM 65.8°F18.8°C 45.5°F7.5°C 48% 19.6 mph W31.5 kmh W 29.9 mph48.1 kmh 29.53 in1000.0 mb - 0.00 in0.0 mm 0.02 in0.5 mm
03:10 PM 64.0°F17.8°C 44.4°F6.9°C 49% 24.2 mph W38.9 kmh W 27.6 mph44.4 kmh 29.56 in1001.0 mb - 0.00 in0.0 mm 0.02 in0.5 mm
03:20 PM 64.4°F18.0°C 44.3°F6.8°C 48% 20.7 mph W33.3 kmh W 26.5 mph42.6 kmh 29.56 in1001.0 mb - 0.00 in0.0 mm 0.02 in0.5 mm
03:30 PM 65.3°F18.5°C 44.5°F6.9°C 47% 23.0 mph WNW37.0 kmh WNW 31.1 mph50.1 kmh 29.56 in1001.0 mb - 0.00 in0.0 mm 0.02 in0.5 mm
03:40 PM 64.4°F18.0°C 44.3°F6.8°C 48% 16.1 mph W25.9 kmh W 23.0 mph37.0 kmh 29.56 in1001.0 mb - 0.00 in0.0 mm 0.02 in0.5 mm
03:50 PM 64.4°F18.0°C 45.4°F7.4°C 50% 11.5 mph W18.5 kmh W 27.6 mph44.4 kmh 29.54 in1000.3 mb - 0.00 in0.0 mm 0.02 in0.5 mm
04:00 PM 64.6°F18.1°C 45.6°F7.6°C 50% 16.1 mph SW25.9 kmh SW 20.7 mph33.3 kmh 29.53 in1000.0 mb - 0.00 in0.0 mm 0.02 in0.5 mm
04:10 PM 64.4°F18.0°C 45.3°F7.4°C 50% 16.1 mph WSW25.9 kmh WSW 18.4 mph29.6 kmh 29.56 in1001.0 mb - 0.00 in0.0 mm 0.02 in0.5 mm
04:20 PM 64.5°F18.1°C 45.4°F7.4°C 50% 16.1 mph W25.9 kmh W 25.3 mph40.7 kmh 29.56 in1001.0 mb - 0.00 in0.0 mm 0.02 in0.5 mm
04:30 PM 63.9°F17.7°C 44.9°F7.2°C 50% 18.4 mph WSW29.6 kmh WSW 23.0 mph37.0 kmh 29.56 in1001.0 mb - 0.00 in0.0 mm 0.02 in0.5 mm
04:40 PM 64.1°F17.8°C 45.6°F7.6°C 51% 16.1 mph WSW25.9 kmh WSW 20.7 mph33.3 kmh 29.59 in1002.0 mb - 0.00 in0.0 mm 0.02 in0.5 mm
04:50 PM 62.0°F16.7°C 46.1°F7.8°C 56% 15.0 mph W24.1 kmh W 24.2 mph38.9 kmh 29.59 in1002.0 mb - 0.00 in0.0 mm 0.02 in0.5 mm
05:00 PM 62.8°F17.1°C 46.8°F8.2°C 56% 16.1 mph W25.9 kmh W 18.4 mph29.6 kmh 29.59 in1002.0 mb - 0.00 in0.0 mm 0.02 in0.5 mm
05:10 PM 63.3°F17.4°C 45.9°F7.7°C 53% 20.7 mph W33.3 kmh W 27.6 mph44.4 kmh 29.62 in1003.0 mb - 0.00 in0.0 mm 0.02 in0.5 mm
05:20 PM 61.7°F16.5°C 44.4°F6.9°C 53% 18.4 mph W29.6 kmh W 26.5 mph42.6 kmh 29.62 in1003.0 mb - 0.00 in0.0 mm 0.02 in0.5 mm
05:30 PM 60.4°F15.8°C 43.7°F6.5°C 54% 23.0 mph W37.0 kmh W 26.5 mph42.6 kmh 29.62 in1003.0 mb - 0.00 in0.0 mm 0.02 in0.5 mm
05:40 PM 60.9°F16.1°C 44.1°F6.7°C 54% 17.3 mph W27.8 kmh W 21.9 mph35.2 kmh 29.62 in1003.0 mb - 0.00 in0.0 mm 0.02 in0.5 mm
05:50 PM 62.5°F16.9°C 44.6°F7.0°C 52% 13.8 mph WSW22.2 kmh WSW 18.4 mph29.6 kmh 29.62 in1003.0 mb - 0.00 in0.0 mm 0.02 in0.5 mm
06:00 PM 62.2°F16.8°C 44.3°F6.8°C 52% 17.3 mph W27.8 kmh W 23.0 mph37.0 kmh 29.62 in1003.0 mb - 0.00 in0.0 mm 0.02 in0.5 mm
06:10 PM 62.6°F17.0°C 44.2°F6.8°C 51% 15.0 mph W24.1 kmh W 16.1 mph25.9 kmh 29.62 in1003.0 mb - 0.00 in0.0 mm 0.02 in0.5 mm
06:20 PM 62.6°F17.0°C 44.2°F6.8°C 51% 15.0 mph WSW24.1 kmh WSW 20.7 mph33.3 kmh 29.64 in1003.7 mb - 0.00 in0.0 mm 0.02 in0.5 mm
06:30 PM 60.6°F15.9°C 42.4°F5.8°C 51% 16.1 mph WSW25.9 kmh WSW 18.4 mph29.6 kmh 29.65 in1004.1 mb - 0.00 in0.0 mm 0.02 in0.5 mm
06:40 PM 60.4°F15.8°C 42.7°F5.9°C 52% 15.0 mph WSW24.1 kmh WSW 19.6 mph31.5 kmh 29.65 in1004.1 mb - 0.00 in0.0 mm 0.02 in0.5 mm
06:50 PM 59.9°F15.5°C 42.2°F5.7°C 52% 16.1 mph W25.9 kmh W 23.0 mph37.0 kmh 29.65 in1004.1 mb - 0.00 in0.0 mm 0.02 in0.5 mm
07:00 PM 59.0°F15.0°C 42.4°F5.8°C 54% 12.7 mph WSW20.4 kmh WSW 16.1 mph25.9 kmh 29.65 in1004.1 mb - 0.00 in0.0 mm 0.02 in0.5 mm
07:10 PM 58.6°F14.8°C 42.5°F5.8°C 55% 11.5 mph W18.5 kmh W 13.8 mph22.2 kmh 29.65 in1004.1 mb - 0.00 in0.0 mm 0.02 in0.5 mm
07:20 PM 58.5°F14.7°C 42.3°F5.7°C 55% 15.0 mph W24.1 kmh W 20.7 mph33.3 kmh 29.67 in1004.7 mb - 0.00 in0.0 mm 0.02 in0.5 mm
07:30 PM 57.9°F14.4°C 42.8°F6.0°C 57% 11.5 mph W18.5 kmh W 13.8 mph22.2 kmh 29.68 in1005.1 mb - 0.00 in0.0 mm 0.02 in0.5 mm
07:40 PM 57.6°F14.2°C 44.6°F7.0°C 62% 11.5 mph WNW18.5 kmh WNW 13.8 mph22.2 kmh 29.68 in1005.1 mb - 0.00 in0.0 mm 0.02 in0.5 mm
07:50 PM 57.2°F14.0°C 43.9°F6.6°C 61% 13.8 mph W22.2 kmh W 18.4 mph29.6 kmh 29.68 in1005.1 mb - 0.00 in0.0 mm 0.02 in0.5 mm
08:00 PM 56.8°F13.8°C 44.4°F6.9°C 63% 12.7 mph W20.4 kmh W 23.0 mph37.0 kmh 29.68 in1005.1 mb - 0.00 in0.0 mm 0.02 in0.5 mm
08:10 PM 56.4°F13.6°C 44.4°F6.9°C 64% 18.4 mph W29.6 kmh W 24.2 mph38.9 kmh 29.68 in1005.1 mb - 0.00 in0.0 mm 0.02 in0.5 mm
08:20 PM 55.9°F13.3°C 44.3°F6.8°C 65% 13.8 mph W22.2 kmh W 20.7 mph33.3 kmh 29.68 in1005.1 mb - 0.00 in0.0 mm 0.02 in0.5 mm
08:30 PM 55.6°F13.1°C 45.6°F7.6°C 69% 13.8 mph WSW22.2 kmh WSW 17.3 mph27.8 kmh 29.68 in1005.1 mb - 0.00 in0.0 mm 0.02 in0.5 mm
08:40 PM 54.9°F12.7°C 45.6°F7.6°C 71% 17.3 mph WSW27.8 kmh WSW 20.7 mph33.3 kmh 29.68 in1005.1 mb - 0.00 in0.0 mm 0.02 in0.5 mm
08:50 PM 54.3°F12.4°C 45.5°F7.5°C 72% 12.7 mph WSW20.4 kmh WSW 18.4 mph29.6 kmh 29.68 in1005.1 mb - 0.00 in0.0 mm 0.02 in0.5 mm
09:00 PM 54.1°F12.3°C 45.3°F7.4°C 72% 12.7 mph W20.4 kmh W 16.1 mph25.9 kmh 29.68 in1005.1 mb - 0.00 in0.0 mm 0.02 in0.5 mm
09:10 PM 53.7°F12.1°C 45.2°F7.3°C 73% 12.7 mph WSW20.4 kmh WSW 15.0 mph24.1 kmh 29.71 in1006.1 mb - 0.00 in0.0 mm 0.02 in0.5 mm
09:20 PM 53.4°F11.9°C 45.7°F7.6°C 75% 10.4 mph W16.7 kmh W 18.4 mph29.6 kmh 29.71 in1006.1 mb - 0.00 in0.0 mm 0.02 in0.5 mm
09:30 PM 53.1°F11.7°C 45.7°F7.6°C 76% 13.8 mph W22.2 kmh W 16.1 mph25.9 kmh 29.71 in1006.1 mb - 0.00 in0.0 mm 0.02 in0.5 mm
09:40 PM 52.9°F11.6°C 45.9°F7.7°C 77% 10.4 mph WSW16.7 kmh WSW 12.7 mph20.4 kmh 29.71 in1006.1 mb - 0.00 in0.0 mm 0.02 in0.5 mm
09:50 PM 52.7°F11.5°C 46.4°F8.0°C 79% 13.8 mph W22.2 kmh W 16.1 mph25.9 kmh 29.71 in1006.1 mb - 0.00 in0.0 mm 0.02 in0.5 mm
10:00 PM 52.3°F11.3°C 46.4°F8.0°C 80% 12.7 mph WSW20.4 kmh WSW 13.8 mph22.2 kmh 29.71 in1006.1 mb - 0.00 in0.0 mm 0.02 in0.5 mm
10:10 PM 52.2°F11.2°C 46.5°F8.1°C 81% 16.1 mph W25.9 kmh W 20.7 mph33.3 kmh 29.71 in1006.1 mb - 0.00 in0.0 mm 0.02 in0.5 mm
10:20 PM 52.0°F11.1°C 46.0°F7.8°C 80% 16.1 mph W25.9 kmh W 23.0 mph37.0 kmh 29.71 in1006.1 mb - 0.00 in0.0 mm 0.02 in0.5 mm
10:30 PM 51.8°F11.0°C 45.8°F7.7°C 80% 12.7 mph W20.4 kmh W 15.0 mph24.1 kmh 29.71 in1006.1 mb - 0.00 in0.0 mm 0.02 in0.5 mm
10:40 PM 51.6°F10.9°C 45.7°F7.6°C 80% 11.5 mph W18.5 kmh W 13.8 mph22.2 kmh 29.71 in1006.1 mb - 0.00 in0.0 mm 0.02 in0.5 mm
10:50 PM 51.6°F10.9°C 45.7°F7.6°C 80% 11.5 mph WSW18.5 kmh WSW 13.8 mph22.2 kmh 29.71 in1006.1 mb - 0.00 in0.0 mm 0.02 in0.5 mm
11:00 PM 51.1°F10.6°C 45.1°F7.3°C 80% 10.4 mph W16.7 kmh W 15.0 mph24.1 kmh 29.71 in1006.1 mb - 0.00 in0.0 mm 0.04 in1.0 mm
11:10 PM 51.3°F10.7°C 45.3°F7.4°C 80% 10.4 mph W16.7 kmh W 15.0 mph24.1 kmh 29.71 in1006.1 mb - 0.00 in0.0 mm 0.04 in1.0 mm
11:20 PM 50.9°F10.5°C 44.9°F7.2°C 80% 8.1 mph W13.0 kmh W 10.4 mph16.7 kmh 29.73 in1006.8 mb - 0.00 in0.0 mm 0.04 in1.0 mm
11:30 PM 50.7°F10.4°C 44.8°F7.1°C 80% 6.9 mph WSW11.1 kmh WSW 6.9 mph11.1 kmh 29.74 in1007.1 mb - 0.00 in0.0 mm 0.04 in1.0 mm
11:40 PM 50.4°F10.2°C 44.4°F6.9°C 80% 4.6 mph SSW7.4 kmh SSW 5.8 mph9.3 kmh 29.71 in1006.1 mb - 0.00 in0.0 mm 0.04 in1.0 mm
11:50 PM 50.2°F10.1°C 44.6°F7.0°C 81% 5.8 mph SW9.3 kmh SW 8.1 mph13.0 kmh 29.73 in1006.8 mb - 0.00 in0.0 mm 0.04 in1.0 mm